sensor_id;sensor_type;location;lat;lon;timestamp;temperature;humidity
41953;DHT22;63613;28.200;112.870;2023-03-23T00:00:42;15.40;77.80
41953;DHT22;63613;28.200;112.870;2023-03-23T00:03:10;15.40;77.90
41953;DHT22;63613;28.200;112.870;2023-03-23T00:05:39;15.40;78.20
41953;DHT22;63613;28.200;112.870;2023-03-23T00:08:07;15.40;78.20
41953;DHT22;63613;28.200;112.870;2023-03-23T00:10:38;15.40;78.20
41953;DHT22;63613;28.200;112.870;2023-03-23T00:13:06;15.40;78.20
41953;DHT22;63613;28.200;112.870;2023-03-23T00:15:32;15.40;78.00
41953;DHT22;63613;28.200;112.870;2023-03-23T00:18:01;15.40;78.40
41953;DHT22;63613;28.200;112.870;2023-03-23T00:20:31;15.40;78.20
41953;DHT22;63613;28.200;112.870;2023-03-23T00:23:07;15.40;78.10
41953;DHT22;63613;28.200;112.870;2023-03-23T00:25:34;15.40;78.10
41953;DHT22;63613;28.200;112.870;2023-03-23T00:28:01;15.40;78.10
41953;DHT22;63613;28.200;112.870;2023-03-23T00:30:28;15.40;78.10
41953;DHT22;63613;28.200;112.870;2023-03-23T00:32:56;15.40;78.00
41953;DHT22;63613;28.200;112.870;2023-03-23T00:35:23;15.40;78.00
41953;DHT22;63613;28.200;112.870;2023-03-23T00:37:51;15.40;77.90
41953;DHT22;63613;28.200;112.870;2023-03-23T00:40:21;15.40;78.10
41953;DHT22;63613;28.200;112.870;2023-03-23T00:42:48;15.40;78.10
41953;DHT22;63613;28.200;112.870;2023-03-23T00:45:14;15.40;78.10
41953;DHT22;63613;28.200;112.870;2023-03-23T00:47:42;15.40;78.10
41953;DHT22;63613;28.200;112.870;2023-03-23T00:50:13;15.40;78.10
41953;DHT22;63613;28.200;112.870;2023-03-23T00:52:40;15.40;78.10
41953;DHT22;63613;28.200;112.870;2023-03-23T00:55:07;15.40;78.20
41953;DHT22;63613;28.200;112.870;2023-03-23T00:57:34;15.40;78.20
41953;DHT22;63613;28.200;112.870;2023-03-23T01:00:01;15.40;78.10
41953;DHT22;63613;28.200;112.870;2023-03-23T01:02:31;15.40;78.10
41953;DHT22;63613;28.200;112.870;2023-03-23T01:05:18;15.40;78.10
41953;DHT22;63613;28.200;112.870;2023-03-23T01:07:45;15.40;78.00
41953;DHT22;63613;28.200;112.870;2023-03-23T01:10:13;15.40;78.10
41953;DHT22;63613;28.200;112.870;2023-03-23T01:12:44;15.40;78.10
41953;DHT22;63613;28.200;112.870;2023-03-23T01:15:16;15.40;78.00
41953;DHT22;63613;28.200;112.870;2023-03-23T01:17:44;15.40;78.00
41953;DHT22;63613;28.200;112.870;2023-03-23T01:20:15;15.40;78.00
41953;DHT22;63613;28.200;112.870;2023-03-23T01:22:42;15.40;78.10
41953;DHT22;63613;28.200;112.870;2023-03-23T01:25:11;15.40;78.10
41953;DHT22;63613;28.200;112.870;2023-03-23T01:27:38;15.40;78.20
41953;DHT22;63613;28.200;112.870;2023-03-23T01:30:07;15.40;78.20
41953;DHT22;63613;28.200;112.870;2023-03-23T01:32:34;15.40;78.10
41953;DHT22;63613;28.200;112.870;2023-03-23T01:35:01;15.40;78.10
41953;DHT22;63613;28.200;112.870;2023-03-23T01:37:28;15.40;78.10
41953;DHT22;63613;28.200;112.870;2023-03-23T01:39:58;15.40;78.00
41953;DHT22;63613;28.200;112.870;2023-03-23T01:42:29;15.40;78.00
41953;DHT22;63613;28.200;112.870;2023-03-23T01:48:15;15.40;78.00
41953;DHT22;63613;28.200;112.870;2023-03-23T01:51:14;15.40;78.00
41953;DHT22;63613;28.200;112.870;2023-03-23T01:53:50;15.40;77.90
41953;DHT22;63613;28.200;112.870;2023-03-23T01:56:22;15.40;77.90
41953;DHT22;63613;28.200;112.870;2023-03-23T01:58:54;15.40;77.90
41953;DHT22;63613;28.200;112.870;2023-03-23T02:01:21;15.40;77.90
41953;DHT22;63613;28.200;112.870;2023-03-23T02:03:52;15.50;77.90
41953;DHT22;63613;28.200;112.870;2023-03-23T02:06:23;15.40;77.90
41953;DHT22;63613;28.200;112.870;2023-03-23T02:08:51;15.40;77.90
41953;DHT22;63613;28.200;112.870;2023-03-23T02:11:20;15.50;77.90
41953;DHT22;63613;28.200;112.870;2023-03-23T02:13:49;15.40;77.80
41953;DHT22;63613;28.200;112.870;2023-03-23T02:21:58;15.50;77.80
41953;DHT22;63613;28.200;112.870;2023-03-23T02:25:00;15.50;77.90
41953;DHT22;63613;28.200;112.870;2023-03-23T02:31:03;15.60;78.00
41953;DHT22;63613;28.200;112.870;2023-03-23T02:33:58;15.60;78.10
41953;DHT22;63613;28.200;112.870;2023-03-23T02:41:54;15.50;78.10
41953;DHT22;63613;28.200;112.870;2023-03-23T02:44:24;15.60;78.00
41953;DHT22;63613;28.200;112.870;2023-03-23T02:46:54;15.50;78.00
41953;DHT22;63613;28.200;112.870;2023-03-23T02:49:23;15.60;77.90
41953;DHT22;63613;28.200;112.870;2023-03-23T02:51:52;15.60;77.90
41953;DHT22;63613;28.200;112.870;2023-03-23T02:54:20;15.60;77.90
41953;DHT22;63613;28.200;112.870;2023-03-23T02:56:49;15.60;77.90
41953;DHT22;63613;28.200;112.870;2023-03-23T02:59:17;15.50;77.80
41953;DHT22;63613;28.200;112.870;2023-03-23T03:04:14;15.60;77.80
41953;DHT22;63613;28.200;112.870;2023-03-23T03:09:50;15.60;77.70
41953;DHT22;63613;28.200;112.870;2023-03-23T03:12:47;15.60;77.60
41953;DHT22;63613;28.200;112.870;2023-03-23T03:15:37;15.60;77.60
41953;DHT22;63613;28.200;112.870;2023-03-23T03:18:28;15.70;77.90
41953;DHT22;63613;28.200;112.870;2023-03-23T03:21:07;15.70;78.30
41953;DHT22;63613;28.200;112.870;2023-03-23T03:23:38;15.70;78.60
41953;DHT22;63613;28.200;112.870;2023-03-23T03:26:10;15.70;79.00
41953;DHT22;63613;28.200;112.870;2023-03-23T03:28:38;15.80;79.30
41953;DHT22;63613;28.200;112.870;2023-03-23T03:31:07;15.80;79.70
41953;DHT22;63613;28.200;112.870;2023-03-23T03:33:34;15.80;79.80
41953;DHT22;63613;28.200;112.870;2023-03-23T03:36:03;15.80;79.70
41953;DHT22;63613;28.200;112.870;2023-03-23T03:38:45;15.80;79.50
41953;DHT22;63613;28.200;112.870;2023-03-23T03:41:13;15.80;79.30
41953;DHT22;63613;28.200;112.870;2023-03-23T03:43:40;15.80;79.00
41953;DHT22;63613;28.200;112.870;2023-03-23T03:46:06;15.80;78.80
41953;DHT22;63613;28.200;112.870;2023-03-23T03:48:53;15.80;78.70
41953;DHT22;63613;28.200;112.870;2023-03-23T03:51:20;15.80;78.70
41953;DHT22;63613;28.200;112.870;2023-03-23T03:53:47;15.80;78.60
41953;DHT22;63613;28.200;112.870;2023-03-23T03:56:14;15.80;78.50
41953;DHT22;63613;28.200;112.870;2023-03-23T03:58:42;15.80;78.50
41953;DHT22;63613;28.200;112.870;2023-03-23T04:01:09;15.80;78.50
41953;DHT22;63613;28.200;112.870;2023-03-23T04:03:37;15.80;78.40
41953;DHT22;63613;28.200;112.870;2023-03-23T04:06:24;15.80;78.50
41953;DHT22;63613;28.200;112.870;2023-03-23T04:08:57;15.80;78.50
41953;DHT22;63613;28.200;112.870;2023-03-23T04:11:25;15.80;78.40
41953;DHT22;63613;28.200;112.870;2023-03-23T04:13:52;15.80;78.30
41953;DHT22;63613;28.200;112.870;2023-03-23T04:16:19;15.90;78.10
41953;DHT22;63613;28.200;112.870;2023-03-23T04:18:47;15.90;78.10
41953;DHT22;63613;28.200;112.870;2023-03-23T04:21:14;15.90;78.00
41953;DHT22;63613;28.200;112.870;2023-03-23T04:23:42;15.90;77.90
41953;DHT22;63613;28.200;112.870;2023-03-23T04:26:08;16.00;77.80
41953;DHT22;63613;28.200;112.870;2023-03-23T04:28:39;15.90;77.70
41953;DHT22;63613;28.200;112.870;2023-03-23T04:31:07;15.90;77.80
41953;DHT22;63613;28.200;112.870;2023-03-23T04:33:35;16.00;77.60
41953;DHT22;63613;28.200;112.870;2023-03-23T04:36:03;16.00;77.50
41953;DHT22;63613;28.200;112.870;2023-03-23T04:38:32;16.10;78.50
41953;DHT22;63613;28.200;112.870;2023-03-23T04:41:01;16.10;79.00
41953;DHT22;63613;28.200;112.870;2023-03-23T04:43:31;16.10;79.70
41953;DHT22;63613;28.200;112.870;2023-03-23T04:45:59;16.00;79.90
41953;DHT22;63613;28.200;112.870;2023-03-23T04:48:30;16.10;80.00
41953;DHT22;63613;28.200;112.870;2023-03-23T04:51:02;16.10;80.60
41953;DHT22;63613;28.200;112.870;2023-03-23T04:53:31;16.00;81.20
41953;DHT22;63613;28.200;112.870;2023-03-23T04:55:59;16.00;81.80
41953;DHT22;63613;28.200;112.870;2023-03-23T04:58:27;16.10;82.50
41953;DHT22;63613;28.200;112.870;2023-03-23T05:01:00;16.10;83.20
41953;DHT22;63613;28.200;112.870;2023-03-23T05:03:27;16.10;83.90
41953;DHT22;63613;28.200;112.870;2023-03-23T05:06:14;16.20;84.70
41953;DHT22;63613;28.200;112.870;2023-03-23T05:08:43;16.30;85.50
41953;DHT22;63613;28.200;112.870;2023-03-23T05:11:09;16.40;86.10
41953;DHT22;63613;28.200;112.870;2023-03-23T05:13:36;16.50;86.50
41953;DHT22;63613;28.200;112.870;2023-03-23T05:16:04;16.70;87.00
41953;DHT22;63613;28.200;112.870;2023-03-23T05:18:31;16.80;87.50
41953;DHT22;63613;28.200;112.870;2023-03-23T05:21:03;16.80;87.80
41953;DHT22;63613;28.200;112.870;2023-03-23T05:23:30;16.90;88.20
41953;DHT22;63613;28.200;112.870;2023-03-23T05:25:59;17.00;88.40
41953;DHT22;63613;28.200;112.870;2023-03-23T05:28:29;17.10;88.50
41953;DHT22;63613;28.200;112.870;2023-03-23T05:30:57;17.20;88.80
41953;DHT22;63613;28.200;112.870;2023-03-23T05:33:24;17.30;89.00
41953;DHT22;63613;28.200;112.870;2023-03-23T05:35:51;17.40;89.00
41953;DHT22;63613;28.200;112.870;2023-03-23T05:38:19;17.40;89.10
41953;DHT22;63613;28.200;112.870;2023-03-23T05:40:48;17.50;89.00
41953;DHT22;63613;28.200;112.870;2023-03-23T05:43:15;17.60;89.20
41953;DHT22;63613;28.200;112.870;2023-03-23T05:45:42;17.70;88.90
41953;DHT22;63613;28.200;112.870;2023-03-23T05:48:09;17.80;88.80
41953;DHT22;63613;28.200;112.870;2023-03-23T05:50:35;17.90;88.60
41953;DHT22;63613;28.200;112.870;2023-03-23T05:53:02;17.90;88.30
41953;DHT22;63613;28.200;112.870;2023-03-23T05:55:30;18.00;88.10
41953;DHT22;63613;28.200;112.870;2023-03-23T05:57:58;18.10;88.10
41953;DHT22;63613;28.200;112.870;2023-03-23T06:00:25;18.10;88.00
41953;DHT22;63613;28.200;112.870;2023-03-23T06:02:56;18.10;88.00
41953;DHT22;63613;28.200;112.870;2023-03-23T06:05:23;18.30;87.60
41953;DHT22;63613;28.200;112.870;2023-03-23T06:07:52;18.30;86.50
41953;DHT22;63613;28.200;112.870;2023-03-23T06:10:20;18.50;86.30
41953;DHT22;63613;28.200;112.870;2023-03-23T06:12:50;18.50;86.10
41953;DHT22;63613;28.200;112.870;2023-03-23T06:15:18;18.60;85.80
41953;DHT22;63613;28.200;112.870;2023-03-23T06:17:47;18.60;85.20
41953;DHT22;63613;28.200;112.870;2023-03-23T06:20:16;18.50;85.00
41953;DHT22;63613;28.200;112.870;2023-03-23T06:23:04;18.50;84.30
41953;DHT22;63613;28.200;112.870;2023-03-23T06:25:31;18.50;83.70
41953;DHT22;63613;28.200;112.870;2023-03-23T06:28:18;18.50;83.40
41953;DHT22;63613;28.200;112.870;2023-03-23T06:30:48;18.50;83.30
41953;DHT22;63613;28.200;112.870;2023-03-23T06:33:16;18.60;83.00
41953;DHT22;63613;28.200;112.870;2023-03-23T06:35:46;18.50;82.70
41953;DHT22;63613;28.200;112.870;2023-03-23T06:38:14;18.50;80.50
41953;DHT22;63613;28.200;112.870;2023-03-23T06:40:42;18.50;80.30
41953;DHT22;63613;28.200;112.870;2023-03-23T06:43:13;18.40;81.90
41953;DHT22;63613;28.200;112.870;2023-03-23T06:45:40;18.40;83.00
41953;DHT22;63613;28.200;112.870;2023-03-23T06:48:07;18.40;84.00
41953;DHT22;63613;28.200;112.870;2023-03-23T06:50:36;18.40;84.60
41953;DHT22;63613;28.200;112.870;2023-03-23T06:53:03;18.40;85.10
41953;DHT22;63613;28.200;112.870;2023-03-23T06:55:31;18.30;85.70
41953;DHT22;63613;28.200;112.870;2023-03-23T06:57:59;18.30;86.50
41953;DHT22;63613;28.200;112.870;2023-03-23T07:00:27;18.40;86.80
41953;DHT22;63613;28.200;112.870;2023-03-23T07:02:55;18.40;87.50
41953;DHT22;63613;28.200;112.870;2023-03-23T07:05:22;18.40;88.30
41953;DHT22;63613;28.200;112.870;2023-03-23T07:07:49;18.50;88.50
41953;DHT22;63613;28.200;112.870;2023-03-23T07:10:17;18.60;88.80
41953;DHT22;63613;28.200;112.870;2023-03-23T07:13:04;18.60;88.70
41953;DHT22;63613;28.200;112.870;2023-03-23T07:15:31;18.70;88.60
41953;DHT22;63613;28.200;112.870;2023-03-23T07:17:59;18.80;88.30
41953;DHT22;63613;28.200;112.870;2023-03-23T07:20:26;18.80;88.20
41953;DHT22;63613;28.200;112.870;2023-03-23T07:22:54;18.80;87.90
41953;DHT22;63613;28.200;112.870;2023-03-23T07:25:23;18.90;87.70
41953;DHT22;63613;28.200;112.870;2023-03-23T07:27:50;19.00;87.50
41953;DHT22;63613;28.200;112.870;2023-03-23T07:33:05;19.10;87.10
41953;DHT22;63613;28.200;112.870;2023-03-23T07:35:33;19.20;86.80
41953;DHT22;63613;28.200;112.870;2023-03-23T07:38:01;19.20;86.50
41953;DHT22;63613;28.200;112.870;2023-03-23T07:40:31;19.30;86.00
41953;DHT22;63613;28.200;112.870;2023-03-23T07:43:00;19.30;85.70
41953;DHT22;63613;28.200;112.870;2023-03-23T07:45:28;19.30;85.40
41953;DHT22;63613;28.200;112.870;2023-03-23T07:47:55;19.30;85.00
41953;DHT22;63613;28.200;112.870;2023-03-23T07:50:23;19.40;84.50
41953;DHT22;63613;28.200;112.870;2023-03-23T07:52:57;19.50;84.30
41953;DHT22;63613;28.200;112.870;2023-03-23T07:55:25;19.50;83.50
41953;DHT22;63613;28.200;112.870;2023-03-23T07:57:53;19.50;82.70
41953;DHT22;63613;28.200;112.870;2023-03-23T08:00:21;19.50;81.90
41953;DHT22;63613;28.200;112.870;2023-03-23T08:02:57;19.50;81.40
41953;DHT22;63613;28.200;112.870;2023-03-23T08:05:26;19.50;81.30
41953;DHT22;63613;28.200;112.870;2023-03-23T08:07:54;19.40;81.00
41953;DHT22;63613;28.200;112.870;2023-03-23T08:10:22;19.40;81.00
41953;DHT22;63613;28.200;112.870;2023-03-23T08:12:54;19.30;80.70
41953;DHT22;63613;28.200;112.870;2023-03-23T08:15:23;19.30;81.00
41953;DHT22;63613;28.200;112.870;2023-03-23T08:17:51;19.30;80.80
41953;DHT22;63613;28.200;112.870;2023-03-23T08:20:22;19.20;81.10
41953;DHT22;63613;28.200;112.870;2023-03-23T08:22:56;19.10;81.20
41953;DHT22;63613;28.200;112.870;2023-03-23T08:25:23;19.00;81.60
41953;DHT22;63613;28.200;112.870;2023-03-23T08:27:53;19.00;81.10
41953;DHT22;63613;28.200;112.870;2023-03-23T08:30:20;18.90;81.10
41953;DHT22;63613;28.200;112.870;2023-03-23T08:32:51;18.80;81.50
41953;DHT22;63613;28.200;112.870;2023-03-23T08:35:39;18.80;81.80
41953;DHT22;63613;28.200;112.870;2023-03-23T08:38:06;18.70;81.30
41953;DHT22;63613;28.200;112.870;2023-03-23T08:40:33;18.70;81.20
41953;DHT22;63613;28.200;112.870;2023-03-23T08:43:01;18.60;81.40
41953;DHT22;63613;28.200;112.870;2023-03-23T08:45:48;18.60;81.60
41953;DHT22;63613;28.200;112.870;2023-03-23T08:48:16;18.50;81.50
41953;DHT22;63613;28.200;112.870;2023-03-23T08:50:43;18.40;81.50
41953;DHT22;63613;28.200;112.870;2023-03-23T08:53:10;18.40;81.50
41953;DHT22;63613;28.200;112.870;2023-03-23T08:55:40;18.30;82.10
41953;DHT22;63613;28.200;112.870;2023-03-23T08:58:10;18.30;82.40
41953;DHT22;63613;28.200;112.870;2023-03-23T09:00:37;18.30;82.80
41953;DHT22;63613;28.200;112.870;2023-03-23T09:03:04;18.20;82.70
41953;DHT22;63613;28.200;112.870;2023-03-23T09:05:31;18.20;82.70
41953;DHT22;63613;28.200;112.870;2023-03-23T09:07:58;18.10;82.60
41953;DHT22;63613;28.200;112.870;2023-03-23T09:10:27;18.10;82.40
41953;DHT22;63613;28.200;112.870;2023-03-23T09:12:55;18.00;82.60
41953;DHT22;63613;28.200;112.870;2023-03-23T09:15:22;18.00;82.50
41953;DHT22;63613;28.200;112.870;2023-03-23T09:17:51;17.90;82.40
41953;DHT22;63613;28.200;112.870;2023-03-23T09:20:23;17.90;82.50
41953;DHT22;63613;28.200;112.870;2023-03-23T09:22:52;17.90;82.90
41953;DHT22;63613;28.200;112.870;2023-03-23T09:25:22;17.90;82.90
41953;DHT22;63613;28.200;112.870;2023-03-23T09:27:52;17.80;82.00
41953;DHT22;63613;28.200;112.870;2023-03-23T09:30:27;17.80;79.80
41953;DHT22;63613;28.200;112.870;2023-03-23T09:32:56;17.70;78.30
41953;DHT22;63613;28.200;112.870;2023-03-23T09:35:27;17.70;78.40
41953;DHT22;63613;28.200;112.870;2023-03-23T09:38:14;17.70;78.10
41953;DHT22;63613;28.200;112.870;2023-03-23T09:41:06;17.60;77.90
41953;DHT22;63613;28.200;112.870;2023-03-23T09:47:09;17.60;80.60
41953;DHT22;63613;28.200;112.870;2023-03-23T09:49:59;17.60;81.80
41953;DHT22;63613;28.200;112.870;2023-03-23T09:52:51;17.50;81.80
41953;DHT22;63613;28.200;112.870;2023-03-23T09:55:20;17.50;81.80
41953;DHT22;63613;28.200;112.870;2023-03-23T09:58:01;17.40;82.00
41953;DHT22;63613;28.200;112.870;2023-03-23T10:00:41;17.40;82.00
41953;DHT22;63613;28.200;112.870;2023-03-23T10:03:36;17.40;82.30
41953;DHT22;63613;28.200;112.870;2023-03-23T10:06:23;17.30;82.50
41953;DHT22;63613;28.200;112.870;2023-03-23T10:08:55;17.30;82.50
41953;DHT22;63613;28.200;112.870;2023-03-23T10:11:46;17.30;82.60
41953;DHT22;63613;28.200;112.870;2023-03-23T10:20:00;17.10;82.90
41953;DHT22;63613;28.200;112.870;2023-03-23T10:22:52;17.00;82.80
41953;DHT22;63613;28.200;112.870;2023-03-23T10:25:26;16.90;82.90
41953;DHT22;63613;28.200;112.870;2023-03-23T10:28:17;16.80;83.00
41953;DHT22;63613;28.200;112.870;2023-03-23T10:30:53;16.80;83.00
41953;DHT22;63613;28.200;112.870;2023-03-23T10:33:29;16.70;83.00
41953;DHT22;63613;28.200;112.870;2023-03-23T10:38:40;16.60;83.20
41953;DHT22;63613;28.200;112.870;2023-03-23T10:41:14;16.70;83.00
41953;DHT22;63613;28.200;112.870;2023-03-23T10:43:44;16.80;82.90
41953;DHT22;63613;28.200;112.870;2023-03-23T10:46:35;16.80;83.00
41953;DHT22;63613;28.200;112.870;2023-03-23T10:49:11;16.80;83.00
41953;DHT22;63613;28.200;112.870;2023-03-23T10:51:44;16.80;83.10
41953;DHT22;63613;28.200;112.870;2023-03-23T10:54:39;16.80;83.20
41953;DHT22;63613;28.200;112.870;2023-03-23T10:57:26;16.80;83.20
41953;DHT22;63613;28.200;112.870;2023-03-23T11:00:16;16.80;83.40
41953;DHT22;63613;28.200;112.870;2023-03-23T11:06:02;16.70;84.00
41953;DHT22;63613;28.200;112.870;2023-03-23T11:08:34;16.60;84.20
41953;DHT22;63613;28.200;112.870;2023-03-23T11:11:16;16.60;84.30
41953;DHT22;63613;28.200;112.870;2023-03-23T11:13:46;16.60;84.40
41953;DHT22;63613;28.200;112.870;2023-03-23T11:16:27;16.60;84.60
41953;DHT22;63613;28.200;112.870;2023-03-23T11:18:55;16.60;84.60
41953;DHT22;63613;28.200;112.870;2023-03-23T11:21:23;16.50;84.70
41953;DHT22;63613;28.200;112.870;2023-03-23T11:23:57;16.50;84.80
41953;DHT22;63613;28.200;112.870;2023-03-23T11:26:34;16.60;85.00
41953;DHT22;63613;28.200;112.870;2023-03-23T11:29:11;16.60;85.00
41953;DHT22;63613;28.200;112.870;2023-03-23T11:31:43;16.50;85.00
41953;DHT22;63613;28.200;112.870;2023-03-23T11:34:18;16.50;85.00
41953;DHT22;63613;28.200;112.870;2023-03-23T11:39:58;16.50;85.20
41953;DHT22;63613;28.200;112.870;2023-03-23T11:53:49;16.40;85.50
41953;DHT22;63613;28.200;112.870;2023-03-23T11:56:36;16.40;85.40
41953;DHT22;63613;28.200;112.870;2023-03-23T11:59:09;16.40;85.20
41953;DHT22;63613;28.200;112.870;2023-03-23T12:10:31;16.30;85.20
41953;DHT22;63613;28.200;112.870;2023-03-23T12:13:26;16.40;85.30
41953;DHT22;63613;28.200;112.870;2023-03-23T12:16:34;16.30;85.30
41953;DHT22;63613;28.200;112.870;2023-03-23T12:25:18;16.30;85.40
41953;DHT22;63613;28.200;112.870;2023-03-23T12:27:49;16.30;85.30
41953;DHT22;63613;28.200;112.870;2023-03-23T12:33:18;16.30;85.40
41953;DHT22;63613;28.200;112.870;2023-03-23T12:39:10;16.30;85.00
41953;DHT22;63613;28.200;112.870;2023-03-23T12:44:43;16.30;84.80
41953;DHT22;63613;28.200;112.870;2023-03-23T12:47:15;16.30;84.90
41953;DHT22;63613;28.200;112.870;2023-03-23T12:49:54;16.30;85.00
41953;DHT22;63613;28.200;112.870;2023-03-23T12:52:24;16.30;85.00
41953;DHT22;63613;28.200;112.870;2023-03-23T12:57:51;16.30;85.00
41953;DHT22;63613;28.200;112.870;2023-03-23T13:00:48;16.20;85.00
41953;DHT22;63613;28.200;112.870;2023-03-23T13:03:45;16.20;85.10
41953;DHT22;63613;28.200;112.870;2023-03-23T13:06:40;16.20;85.20
41953;DHT22;63613;28.200;112.870;2023-03-23T13:09:50;16.20;85.30
41953;DHT22;63613;28.200;112.870;2023-03-23T13:12:20;16.20;85.10
41953;DHT22;63613;28.200;112.870;2023-03-23T13:23:38;16.20;85.00
41953;DHT22;63613;28.200;112.870;2023-03-23T13:26:19;16.20;84.90
41953;DHT22;63613;28.200;112.870;2023-03-23T13:31:42;16.20;84.60
41953;DHT22;63613;28.200;112.870;2023-03-23T13:34:15;16.20;84.40
41953;DHT22;63613;28.200;112.870;2023-03-23T13:36:52;16.20;84.40
41953;DHT22;63613;28.200;112.870;2023-03-23T13:39:36;16.10;84.40
41953;DHT22;63613;28.200;112.870;2023-03-23T13:47:25;16.20;84.10
41953;DHT22;63613;28.200;112.870;2023-03-23T13:50:02;16.20;84.00
41953;DHT22;63613;28.200;112.870;2023-03-23T13:55:29;16.20;84.00
41953;DHT22;63613;28.200;112.870;2023-03-23T14:06:23;16.20;83.90
41953;DHT22;63613;28.200;112.870;2023-03-23T14:08:54;16.10;84.00
41953;DHT22;63613;28.200;112.870;2023-03-23T14:11:28;16.20;84.00
41953;DHT22;63613;28.200;112.870;2023-03-23T14:16:39;16.10;84.10
41953;DHT22;63613;28.200;112.870;2023-03-23T14:19:25;16.10;84.20
41953;DHT22;63613;28.200;112.870;2023-03-23T14:22:00;16.10;84.00
41953;DHT22;63613;28.200;112.870;2023-03-23T14:24:30;16.20;84.00
41953;DHT22;63613;28.200;112.870;2023-03-23T14:27:10;16.10;84.00
41953;DHT22;63613;28.200;112.870;2023-03-23T14:29:38;16.20;84.00
41953;DHT22;63613;28.200;112.870;2023-03-23T14:32:07;16.20;84.00
41953;DHT22;63613;28.200;112.870;2023-03-23T14:34:38;16.10;84.00
41953;DHT22;63613;28.200;112.870;2023-03-23T14:37:17;16.20;84.00
41953;DHT22;63613;28.200;112.870;2023-03-23T14:39:47;16.20;84.00
41953;DHT22;63613;28.200;112.870;2023-03-23T14:42:18;16.20;84.10
41953;DHT22;63613;28.200;112.870;2023-03-23T14:44:50;16.20;84.00
41953;DHT22;63613;28.200;112.870;2023-03-23T14:47:23;16.20;84.00
41953;DHT22;63613;28.200;112.870;2023-03-23T14:49:59;16.10;83.90
41953;DHT22;63613;28.200;112.870;2023-03-23T14:52:34;16.10;83.90
41953;DHT22;63613;28.200;112.870;2023-03-23T14:55:32;16.20;83.90
41953;DHT22;63613;28.200;112.870;2023-03-23T14:58:09;16.20;83.90
41953;DHT22;63613;28.200;112.870;2023-03-23T15:01:04;16.20;83.90
41953;DHT22;63613;28.200;112.870;2023-03-23T15:03:35;16.10;83.80
41953;DHT22;63613;28.200;112.870;2023-03-23T15:06:08;16.20;83.90
41953;DHT22;63613;28.200;112.870;2023-03-23T15:08:40;16.20;83.80
41953;DHT22;63613;28.200;112.870;2023-03-23T15:13:54;16.20;83.70
41953;DHT22;63613;28.200;112.870;2023-03-23T15:16:27;16.20;83.70
41953;DHT22;63613;28.200;112.870;2023-03-23T15:19:05;16.20;83.70
41953;DHT22;63613;28.200;112.870;2023-03-23T15:21:34;16.20;83.70
41953;DHT22;63613;28.200;112.870;2023-03-23T15:24:20;16.20;83.70
41953;DHT22;63613;28.200;112.870;2023-03-23T15:26:47;16.20;83.70
41953;DHT22;63613;28.200;112.870;2023-03-23T15:29:22;16.20;83.60
41953;DHT22;63613;28.200;112.870;2023-03-23T15:31:55;16.20;83.70
41953;DHT22;63613;28.200;112.870;2023-03-23T15:34:28;16.20;83.80
41953;DHT22;63613;28.200;112.870;2023-03-23T15:37:02;16.20;83.70
41953;DHT22;63613;28.200;112.870;2023-03-23T15:39:41;16.30;83.70
41953;DHT22;63613;28.200;112.870;2023-03-23T15:42:22;16.20;83.80
41953;DHT22;63613;28.200;112.870;2023-03-23T15:45:16;16.20;83.70
41953;DHT22;63613;28.200;112.870;2023-03-23T15:47:48;16.20;83.80
41953;DHT22;63613;28.200;112.870;2023-03-23T15:50:20;16.20;83.80
41953;DHT22;63613;28.200;112.870;2023-03-23T15:55:48;16.20;83.70
41953;DHT22;63613;28.200;112.870;2023-03-23T15:58:16;16.20;83.60
41953;DHT22;63613;28.200;112.870;2023-03-23T16:00:47;16.20;83.50
41953;DHT22;63613;28.200;112.870;2023-03-23T16:03:21;16.30;83.30
41953;DHT22;63613;28.200;112.870;2023-03-23T16:05:54;16.30;83.40
41953;DHT22;63613;28.200;112.870;2023-03-23T16:08:25;16.20;83.40
41953;DHT22;63613;28.200;112.870;2023-03-23T16:10:53;16.20;83.50
41953;DHT22;63613;28.200;112.870;2023-03-23T16:13:20;16.20;83.50
41953;DHT22;63613;28.200;112.870;2023-03-23T16:15:48;16.20;83.50
41953;DHT22;63613;28.200;112.870;2023-03-23T16:18:19;16.20;83.60
41953;DHT22;63613;28.200;112.870;2023-03-23T16:20:48;16.20;83.60
41953;DHT22;63613;28.200;112.870;2023-03-23T16:23:35;16.20;83.60
41953;DHT22;63613;28.200;112.870;2023-03-23T16:26:04;16.20;83.50
41953;DHT22;63613;28.200;112.870;2023-03-23T16:28:33;16.20;83.50
41953;DHT22;63613;28.200;112.870;2023-03-23T16:31:00;16.20;83.50
41953;DHT22;63613;28.200;112.870;2023-03-23T16:33:26;16.20;83.50
41953;DHT22;63613;28.200;112.870;2023-03-23T16:35:57;16.20;83.50
41953;DHT22;63613;28.200;112.870;2023-03-23T16:38:30;16.20;83.40
41953;DHT22;63613;28.200;112.870;2023-03-23T16:41:02;16.20;83.40
41953;DHT22;63613;28.200;112.870;2023-03-23T16:43:28;16.20;83.40
41953;DHT22;63613;28.200;112.870;2023-03-23T16:45:56;16.20;83.40
41953;DHT22;63613;28.200;112.870;2023-03-23T16:48:24;16.20;83.40
41953;DHT22;63613;28.200;112.870;2023-03-23T16:50:52;16.20;83.30
41953;DHT22;63613;28.200;112.870;2023-03-23T16:53:39;16.20;83.20
41953;DHT22;63613;28.200;112.870;2023-03-23T16:56:06;16.20;83.20
41953;DHT22;63613;28.200;112.870;2023-03-23T16:58:36;16.20;83.10
41953;DHT22;63613;28.200;112.870;2023-03-23T17:01:03;16.20;83.00
41953;DHT22;63613;28.200;112.870;2023-03-23T17:03:31;16.20;83.00
41953;DHT22;63613;28.200;112.870;2023-03-23T17:06:00;16.30;83.00
41953;DHT22;63613;28.200;112.870;2023-03-23T17:08:30;16.20;82.90
41953;DHT22;63613;28.200;112.870;2023-03-23T17:10:57;16.20;83.00
41953;DHT22;63613;28.200;112.870;2023-03-23T17:13:24;16.20;82.90
41953;DHT22;63613;28.200;112.870;2023-03-23T17:15:54;16.20;82.90
41953;DHT22;63613;28.200;112.870;2023-03-23T17:18:24;16.20;82.80
41953;DHT22;63613;28.200;112.870;2023-03-23T17:20:53;16.20;82.70
41953;DHT22;63613;28.200;112.870;2023-03-23T17:23:21;16.20;82.50
41953;DHT22;63613;28.200;112.870;2023-03-23T17:25:48;16.20;82.50
41953;DHT22;63613;28.200;112.870;2023-03-23T17:28:15;16.20;82.40
41953;DHT22;63613;28.200;112.870;2023-03-23T17:30:43;16.20;82.40
41953;DHT22;63613;28.200;112.870;2023-03-23T17:33:11;16.20;82.40